Airfield :
LOGIN :

Register | Disclaimer

   EN    FR    IT 

 










Legend :    VFR   Marginal VFR   IFR   Intensive IFR   Very Intensive IFR
Visi :
Ceiling :
>= 8 km
>= 3000ft
5 to 8 km
1000 to 3000 ft
1500m to 5 km
500 to 1000 ft
800 to 1500m
200 to 500 ft
< 800m
< 200 ft
Symbols :   Thunderstorms  Fog  Heavy snow  Heavy precipitations  Wind > 20 kt
SIGMETs :     Misc.  Thunderstorms  Icing  Turbulence  Mountain Waves  Volcanic Ashes






- Airport Elevation : -15 ft
- IATA code : RTM


EHRD - Rotterdam Zestienhoven

CURRENT METAR :
  • 050455Z AUTO 19007KT 9999 NCD 16/11 Q1014 NOSIG

EXPIRED METARs :
  • 050425Z AUTO 21008KT 160V270 9999 NCD 15/11 Q1014 NOSIG
  • 050355Z AUTO 21009KT 180V240 9999 NCD 16/11 Q1014 NOSIG
  • 050325Z AUTO 21010KT 180V240 9999 NCD 16/10 Q1014 NOSIG
  • 050255Z AUTO 20009KT 160V230 9999 NSC 16/10 Q1014 NOSIG
  • 050225Z AUTO 20009KT 9999 NSC 17/10 Q1014 NOSIG

TAF TAF EHRD
Valid from the 05 at 00:00 until the 06 at 06:00 UTC


042256Z 0500/0606 19007KT CAVOK
BECMG 0505/0508 22012KT
BECMG 0516/0519 VRB03KT



MET'MAP, your aeronautical weather chart ! - Copyright ORBIFLY December 2007 - Disclaimer

ORBIFLY MET'MAP TEAM :

Programming & Development : Alexandra Zaïnal
Concept & original design : Baudouin d'Aumeries
Assistance for programming : Marc-Olivier Méhu
Technical & hardware support : Manuel Goepfert

Contact : metmap@orbifly.com




SOURCES & CREDITS :

   NOAA